Historique des stations

Station météo de Ambillou

Altitude de la station : 68 m







Données météorologiques pour le 18/05/2022
Date
Heure
Températures Humidité Point de rosée Vitesse
du vent
Direction Rafales Windchill Pression Pluviométrie
Cumul
Date
Heure
Températures Humidité Point de rosée Vitesse
du vent
Direction Rafales Windchill Pression Pluviométrie
Cumul
18/05/2022 15:0627.8 °C52 %17.0 °C-ENE24 km/h27.81017 hPa0.0 mm
18/05/2022 14:5128.1 °C51 %17.0 °C-ESE24 km/h28.11017 hPa0.0 mm
18/05/2022 14:3727.9 °C51 %16.8 °C-E24 km/h27.91017 hPa0.0 mm
18/05/2022 14:2127.9 °C50 %16.5 °C-ESE24 km/h27.91017 hPa0.0 mm
18/05/2022 14:0627.5 °C53 %17.1 °C-ESE24 km/h27.51017 hPa0.0 mm
18/05/2022 13:5127.2 °C52 %16.5 °C-ESE24 km/h27.21017 hPa0.0 mm
18/05/2022 13:3727.5 °C53 %17.1 °C-NE19 km/h27.51018 hPa0.0 mm
18/05/2022 13:2127.1 °C54 %17.0 °C-SE19 km/h27.11018 hPa0.0 mm
18/05/2022 13:0626.9 °C54 %16.8 °C-ESE16 km/h26.91018 hPa0.0 mm
18/05/2022 12:5226.5 °C56 %17.0 °C-NNE16 km/h26.51018 hPa0.0 mm
18/05/2022 12:3625.9 °C55 %16.2 °C-ESE16 km/h25.91019 hPa0.0 mm
18/05/2022 12:2126.0 °C58 %17.1 °C-ENE16 km/h26.01019 hPa0.0 mm
18/05/2022 12:0625.2 °C60 %16.9 °C-E16 km/h25.21019 hPa0.0 mm
18/05/2022 11:5124.6 °C61 %16.6 °C-ESE16 km/h24.61019 hPa0.0 mm
18/05/2022 11:3624.3 °C63 %16.8 °C-ESE13 km/h24.31019 hPa0.0 mm
18/05/2022 11:2123.7 °C64 %16.5 °C-NNE13 km/h23.71019 hPa0.0 mm
18/05/2022 11:0622.9 °C67 %16.4 °C-NE13 km/h22.91020 hPa0.0 mm
18/05/2022 10:5122.6 °C68 %16.4 °C-E13 km/h22.61019 hPa0.0 mm
18/05/2022 10:3621.9 °C69 %16.0 °C-ESE13 km/h21.91020 hPa0.0 mm
18/05/2022 10:2121.4 °C71 %15.9 °C-E13 km/h21.41020 hPa0.0 mm
18/05/2022 10:0620.8 °C73 %15.8 °C-ESE13 km/h20.81020 hPa0.0 mm
18/05/2022 09:5120.0 °C76 %15.6 °C-ESE13 km/h20.01020 hPa0.0 mm
18/05/2022 09:3619.2 °C77 %15.1 °C-E13 km/h19.21020 hPa0.0 mm
18/05/2022 09:2118.4 °C80 %14.9 °C-ESE13 km/h18.41020 hPa0.0 mm
18/05/2022 09:0617.2 °C83 %14.3 °C-N13 km/h17.21020 hPa0.0 mm
18/05/2022 08:5116.0 °C87 %13.8 °C-NNO13 km/h16.01020 hPa0.0 mm
18/05/2022 08:3615.2 °C89 %13.4 °C-NNO13 km/h15.21020 hPa0.0 mm
18/05/2022 08:2114.4 °C90 %12.8 °C-O13 km/h14.41020 hPa0.0 mm
18/05/2022 08:0613.6 °C90 %12.0 °C-O13 km/h13.61020 hPa0.0 mm
18/05/2022 07:5112.7 °C89 %10.9 °C-O13 km/h12.71020 hPa0.0 mm
18/05/2022 07:3412.3 °C89 %10.5 °C-O13 km/h12.31020 hPa0.0 mm
18/05/2022 07:1911.7 °C88 %9.8 °C-O13 km/h11.71020 hPa0.0 mm
18/05/2022 07:0411.7 °C87 %9.6 °C-O13 km/h11.71020 hPa0.0 mm
18/05/2022 06:4911.6 °C87 %9.5 °C-O13 km/h11.61020 hPa0.0 mm
18/05/2022 06:3411.5 °C86 %9.2 °C-O13 km/h11.51019 hPa0.0 mm
18/05/2022 06:1911.7 °C85 %9.3 °C-O13 km/h11.71019 hPa0.0 mm
18/05/2022 06:0412.1 °C85 %9.7 °C-O13 km/h12.11019 hPa0.0 mm
18/05/2022 05:4912.6 °C85 %10.1 °C-O13 km/h12.61019 hPa0.0 mm
18/05/2022 05:3412.7 °C85 %10.2 °C-O13 km/h12.71019 hPa0.0 mm
18/05/2022 05:1912.9 °C85 %10.4 °C-O13 km/h12.91019 hPa0.0 mm
18/05/2022 05:0413.3 °C84 %10.7 °C-O13 km/h13.31019 hPa0.0 mm
18/05/2022 04:4913.6 °C84 %10.9 °C-O13 km/h13.61019 hPa0.0 mm
18/05/2022 04:3413.7 °C84 %11.0 °C-O13 km/h13.71019 hPa0.0 mm
18/05/2022 04:1913.8 °C84 %11.1 °C-O13 km/h13.81019 hPa0.0 mm
18/05/2022 04:0414.0 °C82 %11.0 °C-O13 km/h14.01019 hPa0.0 mm
18/05/2022 03:4914.2 °C81 %11.0 °C-O13 km/h14.21019 hPa0.0 mm
18/05/2022 03:3414.6 °C81 %11.4 °C-O13 km/h14.61019 hPa0.0 mm
18/05/2022 03:1915.1 °C80 %11.7 °C-O13 km/h15.11019 hPa0.0 mm
18/05/2022 03:0415.6 °C79 %12.0 °C-O13 km/h15.61019 hPa0.0 mm
18/05/2022 02:4915.9 °C78 %12.1 °C-O13 km/h15.91019 hPa0.0 mm
18/05/2022 02:3416.4 °C77 %12.4 °C-O13 km/h16.41019 hPa0.0 mm
18/05/2022 01:4917.4 °C76 %13.1 °C-O13 km/h17.41019 hPa0.0 mm
18/05/2022 01:3417.8 °C75 %13.3 °C-OSO13 km/h17.81019 hPa0.0 mm
18/05/2022 01:1918.0 °C75 %13.5 °C-OSO13 km/h18.01019 hPa0.0 mm
18/05/2022 01:0418.2 °C74 %13.5 °C-O13 km/h18.21018 hPa0.0 mm
18/05/2022 00:4918.3 °C74 %13.6 °C-O13 km/h18.31018 hPa0.0 mm
18/05/2022 00:3418.6 °C74 %13.9 °C-O13 km/h18.61018 hPa0.0 mm
18/05/2022 00:1918.9 °C73 %14.0 °C-O6 km/h18.91018 hPa0.0 mm
18/05/2022 00:0619.2 °C72 %14.0 °C-O6 km/h19.21018 hPa0.0 mm


Minima :

Température : 11.5 °C
Humidité : 50 %
Point de rosée : 9.2 °C
Vent moyen : - km/h
Windchill : 11.5
Pression atm. : 1017 hPa
Maxima :

Température : 28.1 °C
Humidité : 90 %
Point de rosée : 17.1 °C
Vent moyen : 0 km/h
Windchill : 28.1
Pression atm. : 1020 hPa
Rafales max : 24 km/h
Cumul de pluie sur 24H : 0 mm

Ambillou est une commune du département Indre-et-Loire (37).
La station météorologique du réseau de l'association la plus proche de Ambillou n'a pas encore été identifiée.



Icône Facebook Association Météo Centre Icône Twitter Association Météo Centre Icône Chaîne Youtube Association Météo Centre Icône contact Association Météo Centre Icône Insta Association Météo Centre